Time;durP1;ratioP1;P1;durP2;ratioP2;P2;SDS_P1;SDS_P2;PMS_P1;PMS_P2;Temp;Humidity;BMP_temperature;BMP_pressure;BME280_temperature;BME280_humidity;BME280_pressure;Samples;Min_cycle;Max_cycle;Signal;HPM_P1;HPM_P2
2023/06/16 00:00:54;;;;;;;4.88;3.90;;;;;;;14.96;52.07;101690.06;5047416;28;20112;-76
2023/06/16 00:03:21;;;;;;;6.82;4.57;;;;;;;14.92;52.45;101680.66;5048022;28;20021;-75
2023/06/16 00:05:47;;;;;;;5.15;4.10;;;;;;;14.89;52.40;101678.34;5050136;28;20036;-76
2023/06/16 00:08:15;;;;;;;6.28;4.00;;;;;;;14.83;52.67;101677.31;5043562;28;20045;-75
2023/06/16 00:10:40;;;;;;;5.43;4.10;;;;;;;14.77;53.09;101669.97;5048005;28;20032;-76
2023/06/16 00:13:07;;;;;;;6.50;4.25;;;;;;;14.68;53.37;101674.75;5043247;28;20439;-76
2023/06/16 00:15:32;;;;;;;5.35;4.00;;;;;;;14.62;53.54;101680.13;5047405;28;20058;-75
2023/06/16 00:17:57;;;;;;;6.35;4.50;;;;;;;14.58;53.36;101679.72;5046560;28;20033;-75
2023/06/16 00:20:25;;;;;;;7.95;4.40;;;;;;;14.55;53.60;101685.53;5041419;28;20043;-76
2023/06/16 00:22:51;;;;;;;6.60;4.25;;;;;;;14.49;54.66;101675.50;5055508;28;20417;-75
2023/06/16 00:25:19;;;;;;;5.22;4.47;;;;;;;14.47;54.59;101677.59;5049628;28;20037;-76
2023/06/16 00:27:44;;;;;;;7.28;3.67;;;;;;;14.43;54.34;101670.91;5045159;28;20132;-77
2023/06/16 00:30:10;;;;;;;4.40;4.00;;;;;;;14.39;54.49;101674.00;5050661;28;20033;-75
2023/06/16 00:32:36;;;;;;;5.28;4.25;;;;;;;14.36;55.07;101677.13;5044291;28;20472;-75
2023/06/16 00:35:01;;;;;;;8.00;4.97;;;;;;;14.32;55.73;101675.84;5048843;28;20029;-76
2023/06/16 00:37:26;;;;;;;6.07;4.85;;;;;;;14.25;55.68;101672.28;5043064;28;20029;-76
2023/06/16 00:39:53;;;;;;;6.18;4.20;;;;;;;14.20;55.58;101672.06;5043447;28;20029;-76
2023/06/16 00:42:19;;;;;;;5.38;4.30;;;;;;;14.15;56.06;101671.81;5046755;28;20028;-75
2023/06/16 00:44:44;;;;;;;6.28;4.28;;;;;;;14.13;55.82;101668.47;5044326;28;20032;-76
2023/06/16 00:47:09;;;;;;;7.47;4.47;;;;;;;14.08;56.04;101669.06;5048993;28;20496;-76
2023/06/16 00:49:36;;;;;;;8.80;4.63;;;;;;;14.03;56.35;101677.81;5007107;28;20032;-75
2023/06/16 00:52:02;;;;;;;6.65;4.78;;;;;;;13.97;57.10;101673.16;5049277;28;20527;-76
2023/06/16 00:54:27;;;;;;;6.03;4.63;;;;;;;13.90;56.70;101678.56;5031376;28;20050;-75
2023/06/16 00:56:52;;;;;;;6.82;4.93;;;;;;;13.86;57.11;101671.03;5022106;28;20021;-77
2023/06/16 00:59:18;;;;;;;7.20;5.05;;;;;;;13.80;57.28;101669.97;5040828;28;20484;-74
2023/06/16 01:01:44;;;;;;;6.53;4.95;;;;;;;13.74;57.80;101671.59;5051348;28;20021;-77
2023/06/16 01:04:09;;;;;;;6.20;4.80;;;;;;;13.69;57.63;101665.94;5009060;28;20473;-75
2023/06/16 01:06:38;;;;;;;6.53;4.85;;;;;;;13.64;57.77;101665.69;5049586;28;20074;-75
2023/06/16 01:09:23;;;;;;;6.78;5.20;;;;;;;13.59;58.58;101665.47;5044323;28;20039;-75
2023/06/16 01:12:11;;;;;;;8.43;6.15;;;;;;;13.49;59.12;101663.91;5021130;28;20032;-75
2023/06/16 01:14:56;;;;;;;7.47;6.35;;;;;;;13.43;59.79;101670.09;5030760;28;20113;-74
2023/06/16 01:17:22;;;;;;;7.05;6.22;;;;;;;13.32;59.97;101660.66;5040644;28;20112;-75
2023/06/16 01:19:57;;;;;;;7.75;6.35;;;;;;;13.27;60.21;101673.06;5028510;28;20147;-75
2023/06/16 01:22:40;;;;;;;7.63;5.85;;;;;;;13.19;60.02;101672.19;5021608;28;20025;-75
2023/06/16 01:25:07;;;;;;;8.85;6.38;;;;;;;13.13;59.85;101672.13;5034692;28;20124;-75
2023/06/16 01:27:32;;;;;;;7.28;6.50;;;;;;;13.08;59.91;101664.56;5025458;28;20537;-75
2023/06/16 01:29:58;;;;;;;8.07;6.18;;;;;;;13.04;60.06;101668.72;5011989;28;20034;-75
2023/06/16 01:32:25;;;;;;;10.20;6.32;;;;;;;13.00;60.33;101670.94;5030256;28;20029;-75
2023/06/16 01:34:51;;;;;;;9.75;5.93;;;;;;;12.99;60.35;101668.44;5032531;28;20047;-75
2023/06/16 01:37:17;;;;;;;7.90;6.25;;;;;;;12.93;60.34;101667.34;5011823;28;20033;-75
2023/06/16 01:39:44;;;;;;;7.97;5.93;;;;;;;12.89;60.38;101675.00;5013945;28;20044;-75
2023/06/16 01:42:09;;;;;;;8.48;6.40;;;;;;;12.85;60.51;101664.75;5014495;28;20083;-77
2023/06/16 01:44:35;;;;;;;9.82;6.70;;;;;;;12.83;60.51;101667.66;5047277;28;20521;-75
2023/06/16 01:47:00;;;;;;;9.85;6.80;;;;;;;12.81;61.25;101660.75;5028603;28;20055;-76
2023/06/16 01:49:27;;;;;;;9.68;6.55;;;;;;;12.77;61.11;101660.31;5050770;28;20073;-75
2023/06/16 01:51:53;;;;;;;9.52;6.80;;;;;;;12.75;61.15;101665.06;5030649;28;20072;-75
2023/06/16 01:54:18;;;;;;;7.18;6.30;;;;;;;12.69;61.63;101661.28;5040453;28;20034;-74
2023/06/16 01:56:43;;;;;;;7.00;6.22;;;;;;;12.64;61.34;101657.47;5048553;28;20020;-75
2023/06/16 01:59:12;;;;;;;10.65;6.68;;;;;;;12.59;61.36;101656.19;5022319;28;20031;-78
2023/06/16 02:01:43;;;;;;;7.05;5.88;;;;;;;12.56;61.53;101656.56;5047747;28;20037;-78
2023/06/16 02:04:13;;;;;;;7.93;6.28;;;;;;;12.52;61.70;101654.44;5013544;28;20057;-76
2023/06/16 02:07:02;;;;;;;9.10;6.93;;;;;;;12.52;62.30;101658.00;5007508;28;20395;-78
2023/06/16 02:09:28;;;;;;;8.80;6.68;;;;;;;12.46;62.08;101660.59;5034272;28;20048;-74
2023/06/16 02:11:54;;;;;;;7.35;6.43;;;;;;;12.42;62.46;101661.00;5045627;28;20021;-75
2023/06/16 02:14:20;;;;;;;10.98;5.80;;;;;;;12.37;62.76;101655.31;5011544;28;20029;-77
2023/06/16 02:16:45;;;;;;;11.00;6.90;;;;;;;12.33;63.60;101654.00;5046687;28;20029;-76
2023/06/16 02:19:14;;;;;;;11.18;6.50;;;;;;;12.32;63.02;101654.22;5045943;28;20032;-78
2023/06/16 02:21:43;;;;;;;8.02;6.45;;;;;;;12.33;63.11;101662.09;5047213;28;20024;-79
2023/06/16 02:24:08;;;;;;;10.57;7.05;;;;;;;12.36;63.09;101656.34;5041635;28;20035;-80
2023/06/16 02:26:34;;;;;;;10.85;6.97;;;;;;;12.37;63.07;101651.75;5050886;28;20037;-78
2023/06/16 02:29:02;;;;;;;10.75;6.50;;;;;;;12.41;63.15;101661.16;5046782;28;20115;-79
2023/06/16 02:31:27;;;;;;;8.50;6.93;;;;;;;12.45;63.11;101659.75;5054111;28;20024;-80
2023/06/16 02:33:53;;;;;;;8.05;6.22;;;;;;;12.47;62.35;101652.31;5045650;28;20057;-81
2023/06/16 02:36:18;;;;;;;7.30;6.07;;;;;;;12.49;62.66;101655.66;5041017;28;20029;-79
2023/06/16 02:38:45;;;;;;;8.30;6.18;;;;;;;12.47;62.59;101657.72;5038270;28;20541;-78
2023/06/16 02:41:10;;;;;;;7.80;6.28;;;;;;;12.47;62.34;101657.72;5041831;28;20514;-75
2023/06/16 02:43:36;;;;;;;9.50;7.45;;;;;;;12.48;62.92;101658.53;5049302;28;20034;-74
2023/06/16 02:46:01;;;;;;;9.77;6.70;;;;;;;12.47;62.50;101662.25;5048742;28;20025;-74
2023/06/16 02:48:27;;;;;;;9.20;7.20;;;;;;;12.51;62.33;101660.84;5053375;28;20521;-74
2023/06/16 02:50:53;;;;;;;8.90;6.78;;;;;;;12.51;62.46;101661.72;5047209;28;20025;-74
2023/06/16 02:53:18;;;;;;;12.25;6.43;;;;;;;12.49;62.52;101661.06;5049918;28;20035;-74
2023/06/16 02:55:46;;;;;;;8.93;7.18;;;;;;;12.49;63.16;101654.81;5051688;28;20403;-74
2023/06/16 02:58:12;;;;;;;10.07;6.30;;;;;;;12.43;62.98;101661.81;5046781;28;20803;-74
2023/06/16 03:00:37;;;;;;;7.20;6.18;;;;;;;12.39;62.74;101655.09;5040583;28;20104;-73
2023/06/16 03:03:02;;;;;;;8.00;6.68;;;;;;;12.38;62.85;101661.53;5050530;28;20376;-74
2023/06/16 03:05:28;;;;;;;9.50;7.20;;;;;;;12.34;62.82;101660.25;5043267;28;20033;-74
2023/06/16 03:07:54;;;;;;;8.25;6.70;;;;;;;12.28;63.60;101661.81;5045509;28;20044;-74
2023/06/16 03:10:19;;;;;;;9.82;6.95;;;;;;;12.22;64.28;101666.13;5041925;28;20037;-74
2023/06/16 03:12:47;;;;;;;9.25;7.07;;;;;;;12.16;64.72;101661.50;5047321;28;20086;-74
2023/06/16 03:15:12;;;;;;;13.23;7.50;;;;;;;12.12;64.90;101662.88;5039044;28;20437;-74
2023/06/16 03:17:38;;;;;;;10.57;6.78;;;;;;;12.13;64.53;101661.84;5048562;28;20021;-74
2023/06/16 03:20:05;;;;;;;8.10;7.10;;;;;;;12.14;64.78;101660.84;5039771;28;20047;-74
2023/06/16 03:22:30;;;;;;;8.70;7.38;;;;;;;12.15;65.01;101654.41;5047690;28;20036;-73
2023/06/16 03:25:02;;;;;;;9.88;7.60;;;;;;;12.19;64.72;101663.78;5045185;28;20029;-74
2023/06/16 03:27:28;;;;;;;8.35;7.35;;;;;;;12.24;64.99;101655.16;5046562;28;20124;-77
2023/06/16 03:29:54;;;;;;;10.20;7.65;;;;;;;12.26;64.55;101651.22;5038523;28;20071;-74
2023/06/16 03:32:19;;;;;;;10.82;7.35;;;;;;;12.33;65.54;101661.28;5048939;28;20032;-74
2023/06/16 03:34:46;;;;;;;7.75;6.90;;;;;;;12.37;64.93;101662.56;5048065;28;20417;-74
2023/06/16 03:37:11;;;;;;;8.95;6.50;;;;;;;12.43;64.94;101664.50;5048168;28;20381;-74
2023/06/16 03:39:37;;;;;;;8.40;7.03;;;;;;;12.54;64.70;101652.38;5047652;28;20025;-74
2023/06/16 03:42:02;;;;;;;8.27;6.93;;;;;;;12.64;65.31;101657.47;5042309;28;20029;-74
2023/06/16 03:44:27;;;;;;;8.80;7.38;;;;;;;12.67;65.44;101657.09;5050233;28;20037;-74
2023/06/16 03:46:53;;;;;;;12.55;7.97;;;;;;;12.64;65.33;101654.78;5049002;28;20035;-74
2023/06/16 03:49:18;;;;;;;11.13;8.00;;;;;;;12.64;65.32;101663.72;5048609;28;20362;-74
2023/06/16 03:51:47;;;;;;;11.65;8.15;;;;;;;12.62;65.22;101663.06;5049706;28;20090;-74
2023/06/16 03:54:12;;;;;;;11.15;8.68;;;;;;;12.64;65.48;101657.47;5047784;28;20033;-74
2023/06/16 03:56:38;;;;;;;10.93;8.70;;;;;;;12.68;65.29;101664.19;5032715;28;20033;-74
2023/06/16 03:59:04;;;;;;;10.93;8.15;;;;;;;12.75;64.67;101665.06;5045786;28;20052;-74
2023/06/16 04:01:30;;;;;;;10.98;8.07;;;;;;;12.85;64.05;101665.63;5053648;28;20094;-73
2023/06/16 04:03:56;;;;;;;10.65;7.47;;;;;;;12.96;63.39;101664.28;5036728;28;20079;-74
2023/06/16 04:06:21;;;;;;;12.45;8.95;;;;;;;13.08;63.47;101664.56;5052571;28;20716;-74
2023/06/16 04:08:46;;;;;;;11.50;8.85;;;;;;;13.18;63.02;101669.66;5054042;28;20120;-73
2023/06/16 04:11:12;;;;;;;10.48;7.90;;;;;;;13.33;62.41;101661.47;5054650;28;20027;-74
2023/06/16 04:13:37;;;;;;;11.20;8.82;;;;;;;13.44;62.27;101662.84;5049399;28;20401;-74
2023/06/16 04:16:03;;;;;;;10.57;8.48;;;;;;;13.55;61.86;101659.59;5049098;28;20017;-74
2023/06/16 04:18:28;;;;;;;9.18;7.75;;;;;;;13.69;61.63;101665.94;5054444;28;20033;-74
2023/06/16 04:20:53;;;;;;;11.43;8.18;;;;;;;13.82;61.70;101658.94;5050005;28;20087;-74
2023/06/16 04:23:19;;;;;;;11.82;8.35;;;;;;;13.95;61.02;101662.56;5043451;28;20021;-75
2023/06/16 04:25:44;;;;;;;10.40;9.05;;;;;;;14.09;60.45;101655.34;5053581;28;20154;-74
2023/06/16 04:28:13;;;;;;;10.95;8.40;;;;;;;14.17;60.33;101656.19;5051543;28;20519;-74
2023/06/16 04:30:43;;;;;;;11.00;8.70;;;;;;;14.31;59.97;101657.91;5050987;28;20151;-73
2023/06/16 04:33:09;;;;;;;10.30;8.35;;;;;;;14.55;59.76;101669.28;5051870;28;20045;-75
2023/06/16 04:35:34;;;;;;;11.32;8.80;;;;;;;14.99;58.79;101651.69;5057631;28;20044;-76
2023/06/16 04:38:00;;;;;;;12.43;8.00;;;;;;;15.86;56.61;101658.97;5041921;28;20461;-76
2023/06/16 04:40:26;;;;;;;14.63;9.75;;;;;;;16.74;53.63;101662.16;5041051;28;20025;-76
2023/06/16 04:42:52;;;;;;;11.60;8.88;;;;;;;17.50;51.19;101672.28;5051188;28;20035;-74
2023/06/16 04:45:17;;;;;;;9.95;8.95;;;;;;;18.17;49.15;101672.47;5050810;28;20021;-74
2023/06/16 04:47:43;;;;;;;12.07;9.20;;;;;;;18.63;47.68;101675.66;5050635;28;20487;-73
2023/06/16 04:50:09;;;;;;;9.38;7.93;;;;;;;19.41;46.93;101669.47;5045769;28;20041;-73
2023/06/16 04:52:38;;;;;;;11.55;8.50;;;;;;;19.77;45.38;101670.28;5049870;28;20104;-74
2023/06/16 04:55:04;;;;;;;12.45;8.43;;;;;;;19.97;45.24;101663.63;5050843;28;20044;-74
2023/06/16 04:57:33;;;;;;;9.95;8.65;;;;;;;20.57;44.47;101669.75;5032371;28;20495;-76
2023/06/16 04:59:59;;;;;;;11.68;9.07;;;;;;;20.77;43.38;101671.25;5042500;28;20033;-76
2023/06/16 05:02:24;;;;;;;10.18;8.68;;;;;;;21.18;42.62;101666.50;5051341;28;20025;-75
2023/06/16 05:04:50;;;;;;;9.02;8.13;;;;;;;21.57;42.18;101661.06;5049706;28;20025;-75
2023/06/16 05:07:15;;;;;;;9.43;8.45;;;;;;;22.10;40.04;101667.03;5041894;28;20031;-76
2023/06/16 05:09:41;;;;;;;11.02;8.35;;;;;;;22.16;40.04;101659.69;5052266;28;20025;-78
2023/06/16 05:12:07;;;;;;;11.90;7.65;;;;;;;22.95;38.08;101660.25;5042093;28;20141;-78
2023/06/16 05:14:33;;;;;;;8.23;7.32;;;;;;;22.70;38.82;101656.19;5050067;28;20590;-78
2023/06/16 05:16:58;;;;;;;10.52;7.80;;;;;;;22.90;38.63;101653.91;5050793;28;20076;-78
2023/06/16 05:19:23;;;;;;;9.80;7.40;;;;;;;23.12;38.19;101657.38;5046902;28;20032;-77
2023/06/16 05:21:49;;;;;;;8.07;7.28;;;;;;;23.14;37.90;101660.69;5042311;28;20025;-80
2023/06/16 05:24:14;;;;;;;9.55;8.05;;;;;;;23.09;37.95;101657.91;5042893;28;20164;-79
2023/06/16 05:26:41;;;;;;;9.68;7.80;;;;;;;22.73;38.91;101659.50;5040815;28;20169;-79
2023/06/16 05:29:06;;;;;;;8.98;8.07;;;;;;;22.48;39.45;101667.22;5049191;28;20037;-81
2023/06/16 05:31:31;;;;;;;8.90;8.07;;;;;;;22.62;39.48;101666.78;5050313;28;20070;-80
2023/06/16 05:33:57;;;;;;;8.35;7.53;;;;;;;22.96;39.36;101664.66;5041819;28;20033;-80
2023/06/16 05:36:24;;;;;;;8.40;7.47;;;;;;;23.17;38.87;101668.41;5049818;28;20385;-80
2023/06/16 05:38:51;;;;;;;10.05;7.75;;;;;;;23.20;39.27;101667.06;5050665;28;20079;-80
2023/06/16 05:41:16;;;;;;;10.25;7.55;;;;;;;23.78;38.14;101671.88;5040868;28;20538;-80
2023/06/16 05:43:44;;;;;;;8.32;7.50;;;;;;;24.31;36.79;101671.88;5050082;28;20029;-81
2023/06/16 05:46:10;;;;;;;11.68;7.80;;;;;;;24.72;36.31;101670.31;5041984;28;20025;-80
2023/06/16 05:48:35;;;;;;;9.15;7.60;;;;;;;25.02;35.34;101675.03;5050091;28;20029;-80
2023/06/16 05:51:00;;;;;;;10.75;7.50;;;;;;;25.25;35.36;101672.84;5041848;28;20453;-80
2023/06/16 05:53:26;;;;;;;8.57;7.28;;;;;;;25.43;35.28;101668.69;5049182;28;20496;-80
2023/06/16 05:55:51;;;;;;;11.20;7.85;;;;;;;25.73;34.40;101675.28;5045100;28;20041;-80
2023/06/16 05:58:17;;;;;;;7.97;7.10;;;;;;;26.13;34.09;101676.25;5049126;28;20025;-80
2023/06/16 06:00:42;;;;;;;8.07;7.25;;;;;;;26.53;33.77;101676.34;5042684;28;20512;-80
2023/06/16 06:03:08;;;;;;;7.82;6.50;;;;;;;26.88;31.43;101679.16;5049714;28;20043;-81
2023/06/16 06:05:33;;;;;;;7.85;6.15;;;;;;;27.08;31.41;101684.53;5039583;28;20090;-80
2023/06/16 06:07:58;;;;;;;8.82;6.53;;;;;;;27.72;30.41;101688.38;5050046;28;20043;-80
2023/06/16 06:10:24;;;;;;;8.13;5.97;;;;;;;28.41;29.91;101691.69;5042193;28;20483;-80
2023/06/16 06:12:49;;;;;;;7.03;6.00;;;;;;;27.60;29.95;101686.84;5049891;28;20021;-80
2023/06/16 06:15:15;;;;;;;7.45;5.72;;;;;;;28.19;29.73;101689.50;5041005;28;20033;-80
2023/06/16 06:17:40;;;;;;;6.15;5.53;;;;;;;27.93;30.07;101692.56;5046658;28;20031;-80
2023/06/16 06:20:06;;;;;;;6.85;5.93;;;;;;;27.58;30.22;101691.81;5042699;28;20063;-80
2023/06/16 06:22:32;;;;;;;6.82;5.80;;;;;;;28.54;29.54;101695.69;5047696;28;20025;-80
2023/06/16 06:24:59;;;;;;;6.07;5.10;;;;;;;29.56;26.09;101696.28;5039299;28;20028;-80
2023/06/16 06:27:24;;;;;;;6.10;5.00;;;;;;;29.89;26.03;101704.53;5045782;28;20140;-80
2023/06/16 06:29:49;;;;;;;7.07;5.40;;;;;;;30.37;25.60;101709.63;5048495;28;20031;-80
2023/06/16 06:32:15;;;;;;;7.68;5.55;;;;;;;29.55;26.18;101708.50;5050235;28;20035;-80
2023/06/16 06:34:40;;;;;;;5.35;4.85;;;;;;;29.52;26.42;101703.56;5046418;28;20337;-80
2023/06/16 06:37:06;;;;;;;20.20;6.10;;;;;;;29.08;26.27;101709.28;5041531;23;20056;-80
2023/06/16 06:39:31;;;;;;;7.47;5.13;;;;;;;29.94;24.92;101718.31;5050577;28;20033;-80
2023/06/16 06:41:56;;;;;;;6.00;4.90;;;;;;;30.60;24.15;101718.06;5040525;28;20055;-80
2023/06/16 06:44:22;;;;;;;5.68;4.82;;;;;;;30.89;23.60;101721.56;5038309;28;20249;-81
2023/06/16 06:46:48;;;;;;;9.30;5.40;;;;;;;30.26;24.24;101722.13;5039334;28;20029;-80
2023/06/16 06:49:14;;;;;;;6.25;4.55;;;;;;;31.27;23.33;101716.47;5043008;28;20066;-80
2023/06/16 06:51:40;;;;;;;7.90;4.22;;;;;;;31.99;21.98;101724.03;5046387;28;20033;-80
2023/06/16 06:54:06;;;;;;;7.20;4.63;;;;;;;31.81;21.87;101729.53;5045012;28;20125;-80
2023/06/16 06:56:31;;;;;;;5.80;4.30;;;;;;;31.75;21.94;101717.72;5043457;28;20316;-80
2023/06/16 06:58:57;;;;;;;5.38;4.85;;;;;;;31.38;22.00;101719.00;5045473;28;20904;-79
2023/06/16 07:01:22;;;;;;;8.07;5.15;;;;;;;30.79;22.34;101719.84;5049723;28;20029;-79
2023/06/16 07:03:47;;;;;;;6.80;4.35;;;;;;;30.54;22.94;101716.50;5045678;28;20031;-79
2023/06/16 07:06:13;;;;;;;6.13;4.28;;;;;;;29.62;22.68;101712.53;5046129;28;20025;-80
2023/06/16 07:08:38;;;;;;;5.38;3.80;;;;;;;30.17;21.38;101716.47;5041439;28;20399;-79
2023/06/16 07:11:04;;;;;;;5.90;3.60;;;;;;;30.44;20.58;101722.28;5048624;28;20401;-79
2023/06/16 07:13:29;;;;;;;6.90;3.50;;;;;;;30.94;20.53;101724.25;5051456;28;20037;-79
2023/06/16 07:15:55;;;;;;;3.58;3.28;;;;;;;32.18;19.13;101727.34;5048540;28;20036;-79
2023/06/16 07:18:20;;;;;;;4.30;3.13;;;;;;;33.26;17.99;101725.13;5026201;28;20392;-78
2023/06/16 07:20:46;;;;;;;3.97;3.08;;;;;;;33.47;16.92;101727.25;5042460;28;20171;-80
2023/06/16 07:23:11;;;;;;;4.90;3.28;;;;;;;33.94;16.94;101730.03;5042784;28;20104;-77
2023/06/16 07:25:36;;;;;;;4.75;3.22;;;;;;;33.80;17.29;101721.03;5043062;28;20393;-77
2023/06/16 07:28:03;;;;;;;4.43;3.13;;;;;;;34.03;17.46;101726.38;5043123;28;20036;-77
2023/06/16 07:30:29;;;;;;;6.60;3.80;;;;;;;32.57;20.37;101732.38;5051044;28;20025;-77
2023/06/16 07:32:55;;;;;;;3.83;3.38;;;;;;;33.72;18.39;101736.69;5044397;28;20025;-76
2023/06/16 07:35:21;;;;;;;8.82;4.40;;;;;;;33.71;18.89;101732.25;5059124;28;21588;-77
2023/06/16 07:37:46;;;;;;;5.30;3.60;;;;;;;34.37;18.36;101736.50;5044211;28;20044;-77
2023/06/16 07:40:13;;;;;;;5.18;3.83;;;;;;;33.55;19.16;101731.97;5043170;28;20504;-76
2023/06/16 07:42:45;;;;;;;3.92;3.47;;;;;;;34.03;19.37;101734.75;5052418;28;20029;-76
2023/06/16 07:45:11;;;;;;;6.30;3.80;;;;;;;33.65;18.75;101731.63;5050793;28;20496;-74
2023/06/16 07:47:38;;;;;;;4.95;3.53;;;;;;;33.63;18.52;101733.91;5052431;28;20021;-76
2023/06/16 07:50:03;;;;;;;4.35;3.22;;;;;;;34.74;17.32;101744.34;5044297;28;20030;-77
2023/06/16 07:52:29;;;;;;;4.30;2.80;;;;;;;34.09;17.64;101730.59;5042909;28;20475;-77
2023/06/16 07:54:55;;;;;;;3.45;2.72;;;;;;;33.01;17.97;101732.41;5045679;28;20145;-77
2023/06/16 07:57:20;;;;;;;4.20;3.05;;;;;;;32.59;18.21;101727.28;5043256;28;20091;-77
2023/06/16 07:59:45;;;;;;;3.65;2.83;;;;;;;34.53;16.13;101736.75;5045408;28;20055;-77
2023/06/16 08:02:11;;;;;;;3.95;2.72;;;;;;;34.88;15.09;101733.66;5052666;28;20024;-78
2023/06/16 08:04:36;;;;;;;3.60;2.92;;;;;;;33.41;16.54;101716.25;5050779;28;20037;-75
2023/06/16 08:07:01;;;;;;;4.80;3.10;;;;;;;34.49;16.43;101726.59;5051199;28;20029;-75
2023/06/16 08:09:27;;;;;;;5.78;2.80;;;;;;;35.03;15.82;101723.03;5043631;28;20280;-75
2023/06/16 08:11:52;;;;;;;6.15;3.30;;;;;;;34.43;17.79;101724.00;5051964;28;20036;-75
2023/06/16 08:14:18;;;;;;;6.20;3.05;;;;;;;34.28;17.66;101725.38;5043516;28;20465;-76
2023/06/16 08:16:43;;;;;;;5.53;3.00;;;;;;;35.09;17.47;101724.47;5044210;28;20624;-75
2023/06/16 08:19:08;;;;;;;4.57;3.28;;;;;;;34.20;18.09;101712.31;5051535;28;20036;-75
2023/06/16 08:21:34;;;;;;;4.93;3.00;;;;;;;36.02;16.52;101719.59;5051406;28;20091;-76
2023/06/16 08:24:01;;;;;;;3.20;2.90;;;;;;;34.34;17.39;101719.59;5044627;28;20032;-76
2023/06/16 08:26:27;;;;;;;5.63;3.00;;;;;;;33.37;17.94;101711.69;5043412;28;20021;-75
2023/06/16 08:28:52;;;;;;;4.30;2.78;;;;;;;32.19;19.55;101709.50;5050064;28;20059;-76
2023/06/16 08:31:18;;;;;;;2.97;2.67;;;;;;;34.45;17.06;101713.31;5046170;28;20133;-76
2023/06/16 08:33:43;;;;;;;4.07;3.08;;;;;;;35.31;16.49;101716.78;5050348;28;20025;-76
2023/06/16 08:36:09;;;;;;;5.45;3.03;;;;;;;35.94;15.49;101718.53;5042457;28;20255;-76
2023/06/16 08:38:36;;;;;;;6.80;2.92;;;;;;;35.55;15.96;101709.63;5051264;28;20056;-75
2023/06/16 08:41:04;;;;;;;3.95;3.10;;;;;;;34.51;16.65;101713.09;5030509;28;20043;-76
2023/06/16 08:43:29;;;;;;;4.53;2.85;;;;;;;33.00;18.35;101709.28;5032455;28;20056;-76
2023/06/16 08:45:55;;;;;;;4.05;3.00;;;;;;;34.89;17.40;101706.50;5026725;28;20036;-76
2023/06/16 08:48:20;;;;;;;3.10;2.75;;;;;;;34.96;17.17;101703.16;5009443;28;20029;-76
2023/06/16 08:50:46;;;;;;;4.63;2.80;;;;;;;35.90;16.56;101715.59;5047661;28;20029;-76
2023/06/16 08:53:12;;;;;;;4.57;3.08;;;;;;;35.82;16.80;101708.13;5051232;28;20024;-76
2023/06/16 08:55:40;;;;;;;4.72;2.90;;;;;;;35.42;16.75;101705.97;5000706;28;20052;-76
2023/06/16 08:58:07;;;;;;;3.38;2.80;;;;;;;36.34;16.90;101700.16;5043183;28;20507;-76
2023/06/16 09:00:33;;;;;;;4.63;2.80;;;;;;;37.27;15.30;101702.00;5051103;28;20071;-76
2023/06/16 09:02:59;;;;;;;3.20;2.60;;;;;;;35.96;15.57;101699.41;5046416;28;20489;-75
2023/06/16 09:05:28;;;;;;;4.05;3.00;;;;;;;35.61;16.53;101697.06;5018123;28;20074;-75
2023/06/16 09:07:53;;;;;;;3.20;2.90;;;;;;;36.84;14.97;101698.81;5049730;28;20182;-76
2023/06/16 09:10:19;;;;;;;3.88;3.03;;;;;;;37.25;14.62;101700.72;5042120;28;20036;-78
2023/06/16 09:12:44;;;;;;;3.10;2.80;;;;;;;37.20;14.00;101696.22;5049213;28;20036;-77
2023/06/16 09:15:10;;;;;;;4.30;3.05;;;;;;;36.85;15.54;101696.84;5022932;28;20036;-77
2023/06/16 09:17:37;;;;;;;3.38;2.67;;;;;;;37.71;14.25;101700.31;5048425;28;20376;-77
2023/06/16 09:20:06;;;;;;;6.18;3.00;;;;;;;37.13;14.35;101698.81;5042143;28;20229;-78
2023/06/16 09:22:32;;;;;;;3.92;2.78;;;;;;;37.83;13.64;101694.56;5033238;28;20453;-79
2023/06/16 09:25:04;;;;;;;5.43;2.97;;;;;;;37.32;14.63;101692.50;5041510;28;20469;-77
2023/06/16 09:27:45;;;;;;;5.00;2.97;;;;;;;37.54;14.03;101693.06;5047783;28;20025;-74
2023/06/16 09:30:12;;;;;;;3.22;2.63;;;;;;;37.46;14.04;101697.69;5042772;28;20128;-76
2023/06/16 09:32:38;;;;;;;3.95;3.00;;;;;;;36.44;14.75;101693.22;5047244;28;20025;-75
2023/06/16 09:35:16;;;;;;;4.20;2.92;;;;;;;36.11;15.59;101693.06;5041008;28;20021;-75
2023/06/16 09:37:41;;;;;;;5.10;3.00;;;;;;;35.16;16.21;101693.09;5043010;28;20048;-75
2023/06/16 09:40:09;;;;;;;3.53;2.80;;;;;;;35.10;16.41;101691.69;5045292;28;20040;-75
2023/06/16 09:42:35;;;;;;;3.92;2.92;;;;;;;34.05;17.18;101691.34;5016395;28;20053;-76
2023/06/16 09:45:01;;;;;;;4.47;3.10;;;;;;;35.58;16.16;101687.34;5022602;28;20064;-77
2023/06/16 09:47:26;;;;;;;4.93;2.90;;;;;;;35.22;15.78;101686.09;5045061;28;20478;-79
2023/06/16 09:49:55;;;;;;;3.40;3.10;;;;;;;34.64;16.64;101694.41;5003959;28;20208;-79
2023/06/16 09:52:25;;;;;;;3.70;2.95;;;;;;;35.26;16.01;101684.25;5048496;28;20060;-78
2023/06/16 09:54:50;;;;;;;3.55;3.08;;;;;;;35.88;16.23;101677.88;5043234;28;20033;-78
2023/06/16 09:57:15;;;;;;;3.70;3.00;;;;;;;37.45;14.77;101679.19;5015836;28;20055;-79
2023/06/16 09:59:41;;;;;;;4.25;3.15;;;;;;;35.76;15.70;101676.75;5029182;28;20031;-79
2023/06/16 10:02:06;;;;;;;4.22;3.20;;;;;;;35.00;16.75;101673.34;5049202;28;20017;-79
2023/06/16 10:04:31;;;;;;;4.05;3.00;;;;;;;36.54;15.76;101673.09;5015353;28;20400;-79
2023/06/16 10:07:04;;;;;;;5.20;2.83;;;;;;;35.55;16.10;101670.44;5023874;28;20029;-79
2023/06/16 10:09:44;;;;;;;4.63;2.92;;;;;;;36.95;15.17;101675.91;5028785;28;20086;-78
2023/06/16 10:12:11;;;;;;;5.05;3.33;;;;;;;36.68;15.29;101676.34;5029894;28;20155;-78
2023/06/16 10:14:37;;;;;;;3.17;2.80;;;;;;;36.13;15.31;101672.28;5045073;28;20350;-79
2023/06/16 10:17:02;;;;;;;3.17;2.88;;;;;;;37.42;14.56;101675.13;5014968;28;20541;-79
2023/06/16 10:19:28;;;;;;;6.25;3.30;;;;;;;34.92;16.39;101672.25;5007556;28;20082;-78
2023/06/16 10:21:54;;;;;;;3.20;2.90;;;;;;;34.67;16.77;101665.75;5028531;28;20337;-78
2023/06/16 10:24:20;;;;;;;3.65;3.10;;;;;;;36.55;15.78;101663.53;5014619;28;20045;-79
2023/06/16 10:26:45;;;;;;;3.53;3.15;;;;;;;35.94;15.99;101665.28;5047374;28;20029;-79
2023/06/16 10:29:16;;;;;;;4.65;2.97;;;;;;;36.31;16.45;101668.03;5010483;28;20029;-78
2023/06/16 10:31:43;;;;;;;4.78;2.95;;;;;;;36.98;15.75;101661.13;5023447;28;20027;-78
2023/06/16 10:34:16;;;;;;;3.45;3.15;;;;;;;36.66;15.68;101664.66;5029209;28;20032;-77
2023/06/16 10:36:41;;;;;;;3.50;3.20;;;;;;;36.15;16.11;101658.75;5024058;28;20094;-79
2023/06/16 10:39:08;;;;;;;4.10;3.10;;;;;;;35.62;16.22;101660.28;5011733;28;20025;-78
2023/06/16 10:41:33;;;;;;;5.90;3.13;;;;;;;36.04;16.09;101653.59;5040380;28;20025;-78
2023/06/16 10:44:21;;;;;;;5.30;3.28;;;;;;;37.32;14.97;101648.38;5031327;28;20567;-78
2023/06/16 10:47:22;;;;;;;3.45;3.10;;;;;;;38.17;14.37;101646.38;5045544;28;20028;-78
2023/06/16 10:49:51;;;;;;;3.00;2.80;;;;;;;38.31;13.65;101645.81;5012531;28;20385;-78
2023/06/16 10:52:17;;;;;;;5.13;3.22;;;;;;;38.08;13.79;101643.78;5040942;28;20473;-79
2023/06/16 10:54:51;;;;;;;3.47;2.85;;;;;;;37.94;14.19;101643.47;5048993;28;20044;-78
2023/06/16 10:57:16;;;;;;;5.65;3.03;;;;;;;37.34;14.91;101633.16;5046774;28;20029;-79
2023/06/16 10:59:56;;;;;;;3.45;3.00;;;;;;;36.11;16.13;101625.81;5040479;28;20025;-79
2023/06/16 11:02:26;;;;;;;3.95;3.33;;;;;;;36.38;15.93;101622.56;5036192;28;20032;-79
2023/06/16 11:05:10;;;;;;;5.47;3.20;;;;;;;35.52;16.84;101621.56;5046562;28;20025;-78
2023/06/16 11:08:08;;;;;;;4.00;3.30;;;;;;;35.13;17.24;101624.63;5047811;28;20033;-78
2023/06/16 11:11:06;;;;;;;4.72;3.10;;;;;;;36.79;14.94;101631.75;5020749;28;20138;-78
2023/06/16 11:13:35;;;;;;;4.40;3.20;;;;;;;36.95;14.19;101633.81;4992237;28;20079;-78
2023/06/16 11:16:01;;;;;;;4.50;3.38;;;;;;;36.76;14.39;101624.06;5043326;28;20116;-78
2023/06/16 11:18:27;;;;;;;3.53;3.17;;;;;;;36.60;14.35;101624.00;5035261;28;20327;-79
2023/06/16 11:20:56;;;;;;;3.42;3.10;;;;;;;36.94;13.96;101632.97;5041317;28;20079;-79
2023/06/16 11:23:22;;;;;;;4.28;3.03;;;;;;;37.67;13.31;101634.78;5041298;28;20030;-78